Greenslough, Ireland
Current Conditions -  °F | °C
As of 9:00 AM on Tuesday 21 Oct 2014 (Local Time) from EIDL Reporting Station
Scattered Clouds Scattered Clouds  
Wind Chill: 10°   Ceiling: Unl
Heat Index: 10°   Visibility: 6mi
Dew Point:   Wind: 37mph
Humidity: 66%   Direction: 320°NW
Pressure: 29.74"   Gusts: NA
Location:  55.12°N, 7.9°W
Report Text: EIDL 210900Z 32032KT 9999 SCT033 10/04 Q1007
Loading
Personal Weather Stations






























Interactive Weather Map
Tropical Storm Tracking
New forecast layout! Learn more

10-Day Weather Forecast

Advertisements
Track Severe Weather on mobile